createdAt,value
2022-07-29T00:00:11.359Z,25.28
2022-07-29T00:01:19.736Z,25.27
2022-07-29T00:02:17.010Z,25.26
2022-07-29T00:03:20.760Z,25.27
2022-07-29T00:04:22.838Z,25.26
2022-07-29T00:05:24.807Z,25.26
2022-07-29T00:06:27.374Z,25.24
2022-07-29T00:07:29.331Z,25.25
2022-07-29T00:08:31.288Z,25.23
2022-07-29T00:09:33.437Z,25.22
2022-07-29T00:10:37.543Z,25.22
2022-07-29T00:11:39.513Z,25.22
2022-07-29T00:12:41.465Z,25.21
2022-07-29T00:13:46.490Z,25.18
2022-07-29T00:14:47.206Z,25.17
2022-07-29T00:15:50.278Z,25.16
2022-07-29T00:16:52.497Z,25.15
2022-07-29T00:17:54.499Z,25.15
2022-07-29T00:18:57.299Z,25.13
2022-07-29T00:20:00.247Z,25.09
2022-07-29T00:21:02.200Z,25.10
2022-07-29T00:22:05.379Z,25.09
2022-07-29T00:23:07.334Z,25.07
2022-07-29T00:24:11.131Z,25.06
2022-07-29T00:25:13.182Z,25.03
2022-07-29T00:26:16.055Z,25.03
2022-07-29T00:27:18.008Z,25.02
2022-07-29T00:28:19.962Z,25.02
2022-07-29T00:29:37.364Z,25.01
2022-07-29T00:30:26.730Z,25.01
2022-07-29T00:31:28.724Z,25.01
2022-07-29T00:32:30.739Z,24.98
2022-07-29T00:33:32.688Z,24.94
2022-07-29T00:34:34.643Z,24.94
2022-07-29T00:35:36.600Z,24.92
2022-07-29T00:36:38.645Z,24.91
2022-07-29T00:37:40.602Z,24.92
2022-07-29T00:38:42.557Z,24.90
2022-07-29T00:39:44.517Z,24.89
2022-07-29T00:40:46.662Z,24.87
2022-07-29T00:41:48.618Z,24.85
2022-07-29T00:42:51.294Z,24.84
2022-07-29T00:43:53.750Z,24.85
2022-07-29T00:44:55.705Z,24.85
2022-07-29T00:45:57.654Z,24.85
2022-07-29T00:46:59.846Z,24.85
2022-07-29T00:48:01.866Z,24.82
2022-07-29T00:49:03.845Z,24.82
2022-07-29T00:50:06.078Z,24.84
2022-07-29T00:51:08.034Z,24.86
2022-07-29T00:52:09.914Z,24.86
2022-07-29T00:53:11.937Z,24.86
2022-07-29T00:54:14.226Z,24.87
2022-07-29T00:55:16.458Z,24.84
2022-07-29T00:56:19.741Z,24.85
2022-07-29T00:57:21.695Z,24.85
2022-07-29T00:58:23.644Z,24.83
2022-07-29T00:59:25.603Z,24.81
2022-07-29T01:00:30.314Z,24.80
2022-07-29T01:01:32.710Z,24.76
2022-07-29T01:02:34.802Z,24.76
2022-07-29T01:03:39.175Z,24.74
2022-07-29T01:04:41.201Z,24.72
2022-07-29T01:05:48.143Z,24.71
2022-07-29T01:06:46.946Z,24.72
2022-07-29T01:07:48.898Z,24.68
2022-07-29T01:08:50.849Z,24.66
2022-07-29T01:09:52.804Z,24.64
2022-07-29T01:10:54.958Z,24.64
2022-07-29T01:11:58.557Z,24.62
2022-07-29T01:13:00.503Z,24.59
2022-07-29T01:14:02.453Z,24.52
2022-07-29T01:15:04.409Z,24.56
2022-07-29T01:16:06.707Z,24.56
2022-07-29T01:17:08.722Z,24.54
2022-07-29T01:18:10.669Z,24.52
2022-07-29T01:19:12.730Z,24.51
2022-07-29T01:20:15.399Z,24.49
2022-07-29T01:21:18.379Z,24.48
2022-07-29T01:22:20.325Z,24.48
2022-07-29T01:23:22.381Z,24.48
2022-07-29T01:24:24.342Z,24.48
2022-07-29T01:25:26.294Z,24.50
2022-07-29T01:26:30.189Z,24.49
2022-07-29T01:27:33.983Z,24.48
2022-07-29T01:28:35.937Z,24.48
2022-07-29T01:29:38.832Z,24.50
2022-07-29T01:30:41.678Z,24.50
2022-07-29T01:31:58.554Z,24.49
2022-07-29T01:32:48.672Z,24.49
2022-07-29T01:33:51.016Z,24.49
2022-07-29T01:34:52.973Z,24.50
2022-07-29T01:35:54.846Z,24.49
2022-07-29T01:36:56.772Z,24.49
2022-07-29T01:37:58.729Z,24.49
2022-07-29T01:39:00.675Z,24.47
2022-07-29T01:40:02.834Z,24.43
2022-07-29T01:41:04.803Z,24.43
2022-07-29T01:42:06.739Z,24.42
2022-07-29T01:43:08.896Z,24.43
2022-07-29T01:44:10.858Z,24.42
2022-07-29T01:45:12.801Z,24.42
2022-07-29T01:46:16.666Z,24.41
2022-07-29T01:47:18.675Z,24.40
2022-07-29T01:48:20.707Z,24.37
2022-07-29T01:49:22.766Z,24.35
2022-07-29T01:50:25.123Z,24.33
2022-07-29T01:51:27.074Z,24.30
2022-07-29T01:52:29.031Z,24.30
2022-07-29T01:53:37.789Z,24.28
2022-07-29T01:54:34.779Z,24.24
2022-07-29T01:55:36.733Z,24.19
2022-07-29T01:56:38.880Z,24.16
2022-07-29T01:57:40.839Z,24.13
2022-07-29T01:58:43.096Z,24.13
2022-07-29T01:59:45.051Z,24.13
2022-07-29T02:00:47.313Z,24.13
2022-07-29T02:01:49.316Z,24.12
2022-07-29T02:02:51.932Z,24.09
2022-07-29T02:03:53.893Z,24.09
2022-07-29T02:04:55.871Z,24.08
2022-07-29T02:05:57.894Z,24.06
2022-07-29T02:07:00.146Z,24.03
2022-07-29T02:08:02.106Z,24.01
2022-07-29T02:09:04.058Z,24.01
2022-07-29T02:10:08.175Z,24.02
2022-07-29T02:11:10.116Z,24.03
2022-07-29T02:12:12.063Z,24.04
2022-07-29T02:13:14.037Z,24.02
2022-07-29T02:14:16.272Z,24.01
2022-07-29T02:15:18.433Z,24.00
2022-07-29T02:16:20.755Z,23.99
2022-07-29T02:17:22.748Z,23.99
2022-07-29T02:18:24.701Z,23.99
2022-07-29T02:19:26.655Z,23.99
2022-07-29T02:20:28.810Z,23.96
2022-07-29T02:21:30.762Z,23.95
2022-07-29T02:22:32.713Z,23.95
2022-07-29T02:23:45.302Z,23.93
2022-07-29T02:24:38.343Z,23.90
2022-07-29T02:25:40.204Z,23.90
2022-07-29T02:26:42.253Z,23.91
2022-07-29T02:27:44.207Z,23.91
2022-07-29T02:28:46.161Z,23.91
2022-07-29T02:29:48.215Z,23.89
2022-07-29T02:30:50.336Z,23.86
2022-07-29T02:31:52.943Z,23.86
2022-07-29T02:32:54.889Z,23.83
2022-07-29T02:33:56.840Z,23.80
2022-07-29T02:34:58.823Z,23.81
2022-07-29T02:36:01.164Z,23.80
2022-07-29T02:37:03.109Z,23.79
2022-07-29T02:38:04.966Z,23.77
2022-07-29T02:39:06.910Z,23.76
2022-07-29T02:40:11.016Z,23.75
2022-07-29T02:41:12.974Z,23.75
2022-07-29T02:42:19.941Z,23.75
2022-07-29T02:43:23.557Z,23.74
2022-07-29T02:44:25.378Z,23.74
2022-07-29T02:45:28.375Z,23.70
2022-07-29T02:46:32.589Z,23.69
2022-07-29T02:47:41.915Z,23.68
2022-07-29T02:48:38.312Z,23.66
2022-07-29T02:49:40.265Z,23.64
2022-07-29T02:50:42.313Z,23.63
2022-07-29T02:51:45.069Z,23.63
2022-07-29T02:52:47.249Z,23.64
2022-07-29T02:53:49.194Z,23.64
2022-07-29T02:54:51.148Z,23.64
2022-07-29T02:55:53.098Z,23.64
2022-07-29T02:56:55.264Z,23.64
2022-07-29T02:57:57.210Z,23.63
2022-07-29T02:58:59.164Z,23.64
2022-07-29T03:00:01.214Z,23.64
2022-07-29T03:01:03.171Z,23.63
2022-07-29T03:02:05.270Z,23.62
2022-07-29T03:03:07.178Z,23.62
2022-07-29T03:04:09.047Z,23.63
2022-07-29T03:05:11.182Z,23.60
2022-07-29T03:06:38.520Z,23.64
2022-07-29T03:08:39.368Z,23.64
2022-07-29T03:09:41.317Z,23.61
2022-07-29T03:10:43.476Z,23.63
2022-07-29T03:11:50.680Z,23.62
2022-07-29T03:12:49.125Z,23.63
2022-07-29T03:13:51.289Z,23.64
2022-07-29T03:14:53.237Z,23.62
2022-07-29T03:15:55.220Z,23.62
2022-07-29T03:16:57.549Z,23.64
2022-07-29T03:17:59.497Z,23.63
2022-07-29T03:20:28.910Z,23.66
2022-07-29T03:21:31.484Z,23.64
2022-07-29T03:22:33.430Z,23.67
2022-07-29T03:23:36.913Z,23.67
2022-07-29T03:24:39.076Z,23.69
2022-07-29T03:25:41.028Z,23.71
2022-07-29T03:26:43.183Z,23.73
2022-07-29T03:27:45.342Z,23.75
2022-07-29T03:28:47.299Z,23.77
2022-07-29T03:29:50.626Z,23.77
2022-07-29T03:30:53.460Z,23.76
2022-07-29T03:31:57.149Z,23.75
2022-07-29T03:32:59.302Z,23.77
2022-07-29T03:34:01.255Z,23.77
2022-07-29T03:35:03.207Z,23.77
2022-07-29T03:36:05.362Z,23.75
2022-07-29T03:37:07.374Z,23.73
2022-07-29T03:38:09.269Z,23.73
2022-07-29T03:39:11.220Z,23.73
2022-07-29T03:40:15.020Z,23.73
2022-07-29T03:41:16.971Z,23.74
2022-07-29T03:42:20.662Z,23.74
2022-07-29T03:43:22.718Z,23.73
2022-07-29T03:44:24.674Z,23.74
2022-07-29T03:45:26.629Z,23.73
2022-07-29T03:46:29.746Z,23.74
2022-07-29T03:47:49.561Z,23.75
2022-07-29T03:48:35.656Z,23.74
2022-07-29T03:49:37.608Z,23.74
2022-07-29T03:50:39.660Z,23.71
2022-07-29T03:51:41.612Z,23.67
2022-07-29T03:52:43.569Z,23.68
2022-07-29T03:53:47.361Z,23.68
2022-07-29T03:54:49.314Z,23.69
2022-07-29T03:55:51.266Z,23.70
2022-07-29T03:56:53.344Z,23.68
2022-07-29T03:57:55.274Z,23.66
2022-07-29T03:58:57.227Z,23.67
2022-07-29T03:59:59.182Z,23.69
2022-07-29T04:01:01.338Z,23.70
2022-07-29T04:02:03.369Z,23.70
2022-07-29T04:03:05.339Z,23.71
2022-07-29T04:04:09.138Z,23.73
2022-07-29T04:05:11.002Z,23.78
2022-07-29T04:06:13.327Z,23.76
2022-07-29T04:07:15.203Z,23.76
2022-07-29T04:08:17.157Z,23.77
2022-07-29T04:09:19.105Z,23.78
2022-07-29T04:10:30.367Z,23.79
2022-07-29T04:11:26.599Z,23.79
2022-07-29T04:12:28.556Z,23.81
2022-07-29T04:13:30.499Z,23.83
2022-07-29T04:14:32.450Z,23.84
2022-07-29T04:15:34.433Z,23.82
2022-07-29T04:16:37.077Z,23.83
2022-07-29T04:17:39.134Z,23.84
2022-07-29T04:18:41.082Z,23.83
2022-07-29T04:19:43.137Z,23.85
2022-07-29T04:20:45.301Z,23.86
2022-07-29T04:21:47.451Z,23.87
2022-07-29T04:22:50.024Z,23.87
2022-07-29T04:23:53.811Z,23.90
2022-07-29T04:24:59.031Z,23.89
2022-07-29T04:25:59.458Z,23.90
2022-07-29T04:27:01.516Z,23.91
2022-07-29T04:28:03.480Z,23.93
2022-07-29T04:29:05.442Z,23.94
2022-07-29T04:30:07.882Z,23.94
2022-07-29T04:31:09.894Z,23.94
2022-07-29T04:32:11.889Z,23.95
2022-07-29T04:33:14.971Z,23.96
2022-07-29T04:34:17.207Z,23.99
2022-07-29T04:35:19.692Z,24.00
2022-07-29T04:36:29.535Z,24.04
2022-07-29T04:37:25.852Z,24.06
2022-07-29T04:38:27.832Z,24.08
2022-07-29T04:39:30.482Z,24.10
2022-07-29T04:40:32.933Z,24.09
2022-07-29T04:41:35.080Z,24.09
2022-07-29T04:42:46.406Z,24.09
2022-07-29T04:43:41.351Z,24.10
2022-07-29T04:44:43.817Z,24.12
2022-07-29T04:45:45.760Z,24.14
2022-07-29T04:46:47.953Z,24.17
2022-07-29T04:47:49.980Z,24.19
2022-07-29T04:48:52.026Z,24.22
2022-07-29T04:49:53.979Z,24.24
2022-07-29T04:50:56.341Z,24.24
2022-07-29T04:51:58.296Z,24.25
2022-07-29T04:53:00.246Z,24.25
2022-07-29T04:54:02.197Z,24.25
2022-07-29T04:55:04.160Z,24.27
2022-07-29T04:56:06.412Z,24.27
2022-07-29T04:57:08.371Z,24.27
2022-07-29T04:58:10.334Z,24.26
2022-07-29T04:59:12.174Z,24.27
2022-07-29T05:00:15.663Z,24.27
2022-07-29T05:01:17.638Z,24.28
2022-07-29T05:02:19.732Z,24.30
2022-07-29T05:03:22.545Z,24.31
2022-07-29T05:04:24.487Z,24.31
2022-07-29T05:05:26.437Z,24.33
2022-07-29T05:06:29.106Z,24.34
2022-07-29T05:07:31.063Z,24.37
2022-07-29T05:08:33.125Z,24.38
2022-07-29T05:09:35.070Z,24.38
2022-07-29T05:10:37.435Z,24.40
2022-07-29T05:11:39.386Z,24.41
2022-07-29T05:12:41.233Z,24.43
2022-07-29T05:13:46.061Z,24.46
2022-07-29T05:14:46.879Z,24.48
2022-07-29T05:15:48.904Z,24.52
2022-07-29T05:16:51.299Z,24.55
2022-07-29T05:17:53.258Z,24.54
2022-07-29T05:18:55.208Z,24.56
2022-07-29T05:19:57.159Z,24.57
2022-07-29T05:20:59.419Z,24.59
2022-07-29T05:22:01.365Z,24.61
2022-07-29T05:23:03.348Z,24.61
2022-07-29T05:24:05.273Z,24.61
2022-07-29T05:25:09.283Z,24.64
2022-07-29T05:26:11.529Z,24.66
2022-07-29T05:27:13.488Z,24.69
2022-07-29T05:28:15.436Z,24.71
2022-07-29T05:29:43.112Z,24.71
2022-07-29T05:30:21.387Z,24.72
2022-07-29T05:31:23.395Z,24.73
2022-07-29T05:32:25.400Z,24.76
2022-07-29T05:33:34.813Z,24.76
2022-07-29T05:34:31.157Z,24.77
2022-07-29T05:35:33.099Z,24.79
2022-07-29T05:36:35.355Z,24.79
2022-07-29T05:37:37.297Z,24.81
2022-07-29T05:38:39.163Z,24.83
2022-07-29T05:39:48.581Z,24.83
2022-07-29T05:40:44.912Z,24.83
2022-07-29T05:41:51.762Z,24.85
2022-07-29T05:42:50.669Z,24.86
2022-07-29T05:43:53.126Z,24.87
2022-07-29T05:44:55.386Z,24.89
2022-07-29T05:45:57.520Z,24.91
2022-07-29T05:46:59.897Z,24.88
2022-07-29T05:48:01.868Z,24.93
2022-07-29T05:49:03.913Z,24.93
2022-07-29T05:50:06.062Z,24.94
2022-07-29T05:51:07.941Z,24.95
2022-07-29T05:52:09.866Z,24.96
2022-07-29T05:53:19.345Z,24.98
2022-07-29T05:54:15.807Z,24.99
2022-07-29T05:55:18.077Z,24.99
2022-07-29T05:56:20.958Z,24.98
2022-07-29T05:57:22.905Z,24.98
2022-07-29T05:58:24.866Z,24.99
2022-07-29T05:59:30.252Z,24.99
2022-07-29T06:00:31.637Z,24.99
2022-07-29T06:01:33.862Z,25.01
2022-07-29T06:02:35.840Z,25.01
2022-07-29T06:03:37.792Z,25.03
2022-07-29T06:04:39.682Z,25.05
2022-07-29T06:05:41.695Z,25.05
2022-07-29T06:06:43.854Z,25.05
2022-07-29T06:07:50.090Z,25.06
2022-07-29T06:08:49.915Z,25.07
2022-07-29T06:09:51.875Z,25.08
2022-07-29T06:10:54.019Z,25.10
2022-07-29T06:11:55.974Z,25.14
2022-07-29T06:12:57.926Z,25.16
2022-07-29T06:13:59.878Z,25.19
2022-07-29T06:15:01.828Z,25.21
2022-07-29T06:16:04.039Z,25.24
2022-07-29T06:17:06.081Z,25.27
2022-07-29T06:18:07.992Z,25.29
2022-07-29T06:19:10.361Z,25.32
2022-07-29T06:20:15.337Z,25.35
2022-07-29T06:21:17.441Z,25.37
2022-07-29T06:22:19.387Z,25.38
2022-07-29T06:23:21.755Z,25.40
2022-07-29T06:24:24.030Z,25.40
2022-07-29T06:25:25.870Z,25.43
2022-07-29T06:26:30.426Z,25.46
2022-07-29T06:27:33.347Z,25.48
2022-07-29T06:28:37.145Z,25.50
2022-07-29T06:29:39.094Z,25.52
2022-07-29T06:30:41.186Z,25.54
2022-07-29T06:31:43.208Z,25.56
2022-07-29T06:32:45.168Z,25.58
2022-07-29T06:33:47.117Z,25.60
2022-07-29T06:34:49.089Z,25.63
2022-07-29T06:35:52.433Z,25.65
2022-07-29T06:36:55.017Z,25.67
2022-07-29T06:37:59.530Z,25.68
2022-07-29T06:39:01.276Z,25.71
2022-07-29T06:40:05.239Z,25.75
2022-07-29T06:41:07.158Z,25.76
2022-07-29T06:42:09.387Z,25.77
2022-07-29T06:43:11.349Z,25.78
2022-07-29T06:44:13.543Z,25.81
2022-07-29T06:45:15.755Z,25.82
2022-07-29T06:46:18.855Z,25.83
2022-07-29T06:47:20.792Z,25.86
2022-07-29T06:48:22.741Z,25.88
2022-07-29T06:49:24.729Z,25.89
2022-07-29T06:50:28.488Z,25.90
2022-07-29T06:51:30.964Z,25.93
2022-07-29T06:52:33.129Z,25.95
2022-07-29T06:53:35.077Z,25.97
2022-07-29T06:54:37.027Z,26.00
2022-07-29T06:55:39.079Z,26.03
2022-07-29T06:56:41.226Z,26.04
2022-07-29T06:57:43.204Z,26.06
2022-07-29T06:58:45.453Z,26.08
2022-07-29T06:59:47.330Z,26.10
2022-07-29T07:00:49.416Z,26.13
2022-07-29T07:01:51.456Z,26.14
2022-07-29T07:02:53.535Z,26.15
2022-07-29T07:03:55.520Z,26.16
2022-07-29T07:04:57.469Z,26.17
2022-07-29T07:05:59.424Z,26.18
2022-07-29T07:07:02.401Z,26.20
2022-07-29T07:08:04.968Z,26.23
2022-07-29T07:09:06.925Z,26.25
2022-07-29T07:10:09.794Z,26.25
2022-07-29T07:11:11.848Z,26.27
2022-07-29T07:12:13.803Z,26.29
2022-07-29T07:13:15.753Z,26.31
2022-07-29T07:14:17.966Z,26.33
2022-07-29T07:15:20.276Z,26.35
2022-07-29T07:16:22.793Z,26.37
2022-07-29T07:17:24.795Z,26.39
2022-07-29T07:18:26.744Z,26.41
2022-07-29T07:19:28.695Z,26.45
2022-07-29T07:20:30.955Z,26.48
2022-07-29T07:21:33.420Z,26.51
2022-07-29T07:22:38.964Z,26.53
2022-07-29T07:23:40.396Z,26.55
2022-07-29T07:24:42.349Z,26.58
2022-07-29T07:25:44.313Z,26.58
2022-07-29T07:26:46.875Z,26.60
2022-07-29T07:27:48.827Z,26.63
2022-07-29T07:28:50.733Z,26.63
2022-07-29T07:29:52.653Z,26.63
2022-07-29T07:30:54.786Z,26.65
2022-07-29T07:32:00.945Z,26.66
2022-07-29T07:33:00.538Z,26.67
2022-07-29T07:34:02.487Z,26.70
2022-07-29T07:35:04.438Z,26.71
2022-07-29T07:36:06.696Z,26.70
2022-07-29T07:37:08.644Z,26.71
2022-07-29T07:38:10.596Z,26.73
2022-07-29T07:39:12.556Z,26.75
2022-07-29T07:40:18.557Z,26.74
2022-07-29T07:41:18.810Z,26.76
2022-07-29T07:42:20.865Z,26.77
2022-07-29T07:43:22.819Z,26.79
2022-07-29T07:44:24.782Z,26.80
2022-07-29T07:45:26.777Z,26.80
2022-07-29T07:46:29.191Z,26.83
2022-07-29T07:47:31.144Z,26.85
2022-07-29T07:48:34.936Z,26.86
2022-07-29T07:49:36.893Z,26.88
2022-07-29T07:50:38.941Z,26.91
2022-07-29T07:51:41.203Z,26.94
2022-07-29T07:52:43.156Z,26.95
2022-07-29T07:53:45.109Z,26.95
2022-07-29T07:54:47.061Z,26.96
2022-07-29T07:56:53.479Z,27.00
2022-07-29T07:57:56.507Z,27.01
2022-07-29T07:58:58.454Z,27.03
2022-07-29T08:00:00.412Z,27.03
2022-07-29T08:01:03.731Z,27.04
2022-07-29T08:02:05.885Z,27.06
2022-07-29T08:03:16.843Z,27.08
2022-07-29T08:04:11.696Z,27.11
2022-07-29T08:05:13.649Z,27.12
2022-07-29T08:06:16.934Z,27.14
2022-07-29T08:07:18.891Z,27.16
2022-07-29T08:08:22.150Z,27.18
2022-07-29T08:09:29.687Z,27.18
2022-07-29T08:10:28.123Z,27.20
2022-07-29T08:11:34.073Z,27.22
2022-07-29T08:12:38.681Z,27.22
2022-07-29T08:13:40.845Z,27.23
2022-07-29T08:14:42.797Z,27.25
2022-07-29T08:15:44.848Z,27.27
2022-07-29T08:16:47.026Z,27.26
2022-07-29T08:17:49.060Z,27.28
2022-07-29T08:18:50.931Z,27.28
2022-07-29T08:19:53.073Z,27.30
2022-07-29T08:20:55.236Z,27.32
2022-07-29T08:21:57.179Z,27.33
2022-07-29T08:22:59.130Z,27.36
2022-07-29T08:24:05.301Z,27.38
2022-07-29T08:25:05.385Z,27.38
2022-07-29T08:26:08.576Z,27.41
2022-07-29T08:27:33.528Z,27.42
2022-07-29T08:28:14.323Z,27.43
2022-07-29T08:29:19.905Z,27.45
2022-07-29T08:30:21.402Z,27.47
2022-07-29T08:31:23.421Z,27.48
2022-07-29T08:32:50.988Z,27.50
2022-07-29T08:33:29.098Z,27.51
2022-07-29T08:34:31.155Z,27.51
2022-07-29T08:35:35.695Z,27.53
2022-07-29T08:36:37.207Z,27.53
2022-07-29T08:37:39.160Z,27.55
2022-07-29T08:38:41.116Z,27.58
2022-07-29T08:39:43.075Z,27.58
2022-07-29T08:40:45.153Z,27.59
2022-07-29T08:41:56.606Z,27.59
2022-07-29T08:42:50.898Z,27.61
2022-07-29T08:43:52.819Z,27.63
2022-07-29T08:44:54.986Z,27.65
2022-07-29T08:45:56.976Z,27.66
2022-07-29T08:46:59.202Z,27.68
2022-07-29T08:48:01.154Z,27.69
2022-07-29T08:49:03.167Z,27.71
2022-07-29T08:50:05.464Z,27.71
2022-07-29T08:51:07.407Z,27.73
2022-07-29T08:52:09.875Z,27.74
2022-07-29T08:53:11.830Z,27.77
2022-07-29T08:54:13.778Z,27.80
2022-07-29T08:55:15.734Z,27.83
2022-07-29T08:56:19.735Z,27.85
2022-07-29T08:57:23.325Z,27.87
2022-07-29T08:58:25.953Z,27.88
2022-07-29T08:59:28.047Z,27.89
2022-07-29T09:00:33.076Z,27.92
2022-07-29T09:01:36.548Z,27.92
2022-07-29T09:02:39.024Z,27.92
2022-07-29T09:03:41.065Z,27.93
2022-07-29T09:04:43.443Z,27.94
2022-07-29T09:05:48.091Z,27.96
2022-07-29T09:06:49.296Z,27.97
2022-07-29T09:07:52.061Z,28.00
2022-07-29T09:08:54.028Z,28.01
2022-07-29T09:09:55.966Z,28.03
2022-07-29T09:10:58.113Z,28.05
2022-07-29T09:12:00.094Z,28.06
2022-07-29T09:13:02.020Z,28.08
2022-07-29T09:14:03.997Z,28.10
2022-07-29T09:15:06.039Z,28.11
2022-07-29T09:16:09.543Z,28.13
2022-07-29T09:17:11.820Z,28.14
2022-07-29T09:18:19.477Z,28.17
2022-07-29T09:19:17.385Z,28.17
2022-07-29T09:20:19.986Z,28.19
2022-07-29T09:21:21.975Z,28.21
2022-07-29T09:22:23.930Z,28.21
2022-07-29T09:23:25.853Z,28.23
2022-07-29T09:24:27.796Z,28.25
2022-07-29T09:25:29.751Z,28.27
2022-07-29T09:26:32.119Z,28.29
2022-07-29T09:27:34.065Z,28.30
2022-07-29T09:28:36.015Z,28.31
2022-07-29T09:29:37.974Z,28.31
2022-07-29T09:30:40.439Z,28.34
2022-07-29T09:31:42.515Z,28.34
2022-07-29T09:32:44.341Z,28.36
2022-07-29T09:33:46.245Z,28.36
2022-07-29T09:34:48.144Z,28.38
2022-07-29T09:35:57.092Z,28.38
2022-07-29T09:36:54.583Z,28.39
2022-07-29T09:37:56.771Z,28.42
2022-07-29T09:38:58.722Z,28.43
2022-07-29T09:40:00.689Z,28.45
2022-07-29T09:41:05.407Z,28.49
2022-07-29T09:42:06.314Z,28.52
2022-07-29T09:43:08.375Z,28.53
2022-07-29T09:44:10.319Z,28.55
2022-07-29T09:45:12.278Z,28.58
2022-07-29T09:46:14.944Z,28.60
2022-07-29T09:47:17.205Z,28.62
2022-07-29T09:48:19.165Z,28.66
2022-07-29T09:49:21.193Z,28.67
2022-07-29T09:50:24.940Z,28.69
2022-07-29T09:51:38.446Z,28.70
2022-07-29T09:52:30.667Z,28.70
2022-07-29T09:53:32.605Z,28.71
2022-07-29T09:54:34.559Z,28.68
2022-07-29T09:55:36.417Z,28.68
2022-07-29T09:56:38.876Z,28.73
2022-07-29T09:57:40.829Z,28.74
2022-07-29T09:58:42.776Z,28.74
2022-07-29T09:59:50.053Z,28.74
2022-07-29T10:00:48.577Z,28.75
2022-07-29T10:01:50.784Z,28.77
2022-07-29T10:02:52.807Z,28.77
2022-07-29T10:03:54.791Z,28.78
2022-07-29T10:04:56.744Z,28.80
2022-07-29T10:05:58.702Z,28.81
2022-07-29T10:07:04.655Z,28.82
2022-07-29T10:08:07.108Z,28.83
2022-07-29T10:09:09.059Z,28.84
2022-07-29T10:10:12.356Z,28.88
2022-07-29T10:11:14.398Z,28.87
2022-07-29T10:12:16.351Z,28.87
2022-07-29T10:13:18.310Z,28.89
2022-07-29T10:14:20.262Z,28.91
2022-07-29T10:15:22.208Z,28.92
2022-07-29T10:16:25.930Z,28.93
2022-07-29T10:17:27.959Z,28.95
2022-07-29T10:18:30.118Z,28.95
2022-07-29T10:19:32.068Z,28.96
2022-07-29T10:20:34.431Z,28.97
2022-07-29T10:21:36.849Z,28.98
2022-07-29T10:22:54.475Z,29.01
2022-07-29T10:23:47.037Z,29.02
2022-07-29T10:24:46.332Z,29.05
2022-07-29T10:25:48.282Z,29.07
2022-07-29T10:26:50.660Z,29.08
2022-07-29T10:27:52.615Z,29.09
2022-07-29T10:28:54.551Z,29.09
2022-07-29T10:29:56.535Z,29.11
2022-07-29T10:30:58.613Z,29.12
2022-07-29T10:32:00.538Z,29.13
2022-07-29T10:33:02.467Z,29.13
2022-07-29T10:34:04.417Z,29.14
2022-07-29T10:35:06.375Z,29.14
2022-07-29T10:36:09.316Z,29.15
2022-07-29T10:37:11.341Z,29.16
2022-07-29T10:38:16.544Z,29.17
2022-07-29T10:39:17.060Z,29.17
2022-07-29T10:40:21.359Z,29.20
2022-07-29T10:41:24.434Z,29.22
2022-07-29T10:42:29.669Z,29.21
2022-07-29T10:43:30.190Z,29.21
2022-07-29T10:44:33.985Z,29.21
2022-07-29T10:45:36.751Z,29.22
2022-07-29T10:46:39.256Z,29.23
2022-07-29T10:47:42.981Z,29.25
2022-07-29T10:48:45.025Z,29.26
2022-07-29T10:49:47.130Z,29.27
2022-07-29T10:50:50.402Z,29.27
2022-07-29T10:51:52.672Z,29.28
2022-07-29T10:52:54.624Z,29.29
2022-07-29T10:53:56.593Z,29.29
2022-07-29T10:54:59.968Z,29.30
2022-07-29T10:56:02.111Z,29.31
2022-07-29T10:57:05.909Z,29.32
2022-07-29T10:58:08.167Z,29.33
2022-07-29T10:59:10.132Z,29.36
2022-07-29T11:00:16.953Z,29.37
2022-07-29T11:01:18.942Z,29.38
2022-07-29T11:02:41.975Z,29.39
2022-07-29T11:03:26.789Z,29.40
2022-07-29T11:04:28.793Z,29.41
2022-07-29T11:05:32.310Z,29.41
2022-07-29T11:06:34.738Z,29.42
2022-07-29T11:07:45.780Z,29.43
2022-07-29T11:08:42.236Z,29.44
2022-07-29T11:09:46.035Z,29.43
2022-07-29T11:10:48.187Z,29.46
2022-07-29T11:11:51.549Z,29.47
2022-07-29T11:12:54.760Z,29.47
2022-07-29T11:13:56.985Z,29.49
2022-07-29T11:14:59.277Z,29.50
2022-07-29T11:16:01.226Z,29.50
2022-07-29T11:17:03.180Z,29.49
2022-07-29T11:18:06.967Z,29.48
2022-07-29T11:19:08.933Z,29.49
2022-07-29T11:20:12.529Z,29.49
2022-07-29T11:21:15.191Z,29.50
2022-07-29T11:22:19.291Z,29.51
2022-07-29T11:23:23.088Z,29.52
2022-07-29T11:24:29.070Z,29.54
2022-07-29T11:25:50.321Z,29.53
2022-07-29T11:26:33.254Z,29.52
2022-07-29T11:27:36.741Z,29.53
2022-07-29T11:28:38.788Z,29.54
2022-07-29T11:29:43.053Z,29.53
2022-07-29T11:30:45.463Z,29.51
2022-07-29T11:31:49.260Z,29.52
2022-07-29T11:32:51.213Z,29.52
2022-07-29T11:33:56.911Z,29.51
2022-07-29T11:34:58.083Z,29.52
2022-07-29T11:36:00.734Z,29.53
2022-07-29T11:37:03.837Z,29.55
2022-07-29T11:38:06.297Z,29.56
2022-07-29T11:39:08.255Z,29.55
2022-07-29T11:40:11.368Z,29.56
2022-07-29T11:41:13.724Z,29.55
2022-07-29T11:42:16.274Z,29.56
2022-07-29T11:43:18.939Z,29.56
2022-07-29T11:44:20.885Z,29.57
2022-07-29T11:45:43.055Z,29.56
2022-07-29T11:46:29.294Z,29.56
2022-07-29T11:47:31.388Z,29.55
2022-07-29T11:48:35.142Z,29.55
2022-07-29T11:49:38.119Z,29.54
2022-07-29T11:50:44.584Z,29.54
2022-07-29T11:51:48.586Z,29.55
2022-07-29T11:52:49.966Z,29.55
2022-07-29T11:53:52.483Z,29.56
2022-07-29T11:54:58.249Z,29.56
2022-07-29T11:55:58.623Z,29.56
2022-07-29T11:57:00.795Z,29.56
2022-07-29T11:58:03.727Z,29.58
2022-07-29T11:59:08.521Z,29.59
2022-07-29T12:00:12.050Z,29.60
2022-07-29T12:01:14.339Z,29.61
2022-07-29T12:02:37.201Z,29.61
2022-07-29T12:03:22.546Z,29.61
2022-07-29T12:04:26.341Z,29.60
2022-07-29T12:05:36.371Z,29.61
2022-07-29T12:06:32.300Z,29.60
2022-07-29T12:07:35.141Z,29.61
2022-07-29T12:08:37.734Z,29.60
2022-07-29T12:09:40.325Z,29.60
2022-07-29T12:10:43.696Z,29.62
2022-07-29T12:11:47.493Z,29.62
2022-07-29T12:12:49.654Z,29.63
2022-07-29T12:13:51.602Z,29.64
2022-07-29T12:14:53.955Z,29.67
2022-07-29T12:15:55.949Z,29.61
2022-07-29T12:16:59.886Z,29.63
2022-07-29T12:18:03.995Z,29.64
2022-07-29T12:19:05.869Z,29.64
2022-07-29T12:20:08.016Z,29.64
2022-07-29T12:21:12.495Z,29.64
2022-07-29T12:22:14.194Z,29.64
2022-07-29T12:23:16.746Z,29.63
2022-07-29T12:24:20.543Z,29.63
2022-07-29T12:25:32.259Z,29.63
2022-07-29T12:26:29.973Z,29.63
2022-07-29T12:27:31.931Z,29.62
2022-07-29T12:28:33.885Z,29.62
2022-07-29T12:29:36.956Z,29.61
2022-07-29T12:30:39.946Z,29.63
2022-07-29T12:31:45.319Z,29.63
2022-07-29T12:32:47.526Z,29.63
2022-07-29T12:33:49.477Z,29.64
2022-07-29T12:34:51.433Z,29.64
2022-07-29T12:36:06.193Z,29.65
2022-07-29T12:36:57.392Z,29.65
2022-07-29T12:37:59.337Z,29.65
2022-07-29T12:39:01.307Z,29.66
2022-07-29T12:40:03.652Z,29.66
2022-07-29T12:41:07.138Z,29.66
2022-07-29T12:42:13.743Z,29.67
2022-07-29T12:43:13.293Z,29.67
2022-07-29T12:44:18.221Z,29.67
2022-07-29T12:45:22.148Z,29.69
2022-07-29T12:46:24.542Z,29.71
2022-07-29T12:47:26.635Z,29.70
2022-07-29T12:48:28.593Z,29.70
2022-07-29T12:49:30.544Z,29.70
2022-07-29T12:50:35.877Z,29.73
2022-07-29T12:51:37.932Z,29.73
2022-07-29T12:52:39.983Z,29.73
2022-07-29T12:53:41.936Z,29.74
2022-07-29T12:54:45.218Z,29.75
2022-07-29T12:55:47.378Z,29.77
2022-07-29T12:56:49.533Z,29.76
2022-07-29T12:57:51.591Z,29.75
2022-07-29T12:58:53.547Z,29.73
2022-07-29T12:59:55.430Z,29.74
2022-07-29T13:00:57.676Z,29.74
2022-07-29T13:02:00.073Z,29.73
2022-07-29T13:03:02.295Z,29.74
2022-07-29T13:04:04.230Z,29.74
2022-07-29T13:05:06.182Z,29.74
2022-07-29T13:06:09.458Z,29.73
2022-07-29T13:07:11.418Z,29.73
2022-07-29T13:08:20.078Z,29.73
2022-07-29T13:09:19.010Z,29.72
2022-07-29T13:10:24.340Z,29.73
2022-07-29T13:11:26.602Z,29.71
2022-07-29T13:12:28.548Z,29.72
2022-07-29T13:13:30.604Z,29.71
2022-07-29T13:14:32.564Z,29.71
2022-07-29T13:15:34.507Z,29.71
2022-07-29T13:16:36.918Z,29.71
2022-07-29T13:17:38.928Z,29.70
2022-07-29T13:18:42.730Z,29.70
2022-07-29T13:19:44.678Z,29.70
2022-07-29T13:20:46.831Z,29.70
2022-07-29T13:21:48.995Z,29.71
2022-07-29T13:22:50.945Z,29.72
2022-07-29T13:23:52.893Z,29.72
2022-07-29T13:24:54.848Z,29.72
2022-07-29T13:25:56.796Z,29.74
2022-07-29T13:26:59.061Z,29.74
2022-07-29T13:28:01.008Z,29.74